createdAt,value
2018-10-15T00:00:45.285Z,13.40
2018-10-15T00:03:15.425Z,12.43
2018-10-15T00:05:45.745Z,11.27
2018-10-15T00:08:15.786Z,11.30
2018-10-15T00:10:46.245Z,13.33
2018-10-15T00:13:16.285Z,11.27
2018-10-15T00:15:46.385Z,17.73
2018-10-15T00:18:16.153Z,16.60
2018-10-15T00:20:45.908Z,13.00
2018-10-15T00:23:16.004Z,15.93
2018-10-15T00:25:46.285Z,12.63
2018-10-15T00:28:16.506Z,14.33
2018-10-15T00:30:46.646Z,13.40
2018-10-15T00:33:16.644Z,15.20
2018-10-15T00:35:46.396Z,15.30
2018-10-15T00:38:16.003Z,14.57
2018-10-15T00:40:45.936Z,12.33
2018-10-15T00:43:15.577Z,13.63
2018-10-15T00:45:45.419Z,11.87
2018-10-15T00:48:15.117Z,12.37
2018-10-15T00:50:44.856Z,15.20
2018-10-15T00:53:14.417Z,13.27
2018-10-15T00:55:45.096Z,13.97
2018-10-15T00:58:14.856Z,14.23
2018-10-15T01:00:44.516Z,15.10
2018-10-15T01:03:14.396Z,12.80
2018-10-15T01:05:44.136Z,13.63
2018-10-15T01:08:13.577Z,11.83
2018-10-15T01:10:43.296Z,12.23
2018-10-15T01:13:12.856Z,12.87
2018-10-15T01:15:42.477Z,13.87
2018-10-15T01:18:12.177Z,14.73
2018-10-15T01:20:41.957Z,16.00
2018-10-15T01:23:11.396Z,15.00
2018-10-15T01:25:41.258Z,15.77
2018-10-15T01:28:12.939Z,14.17
2018-10-15T01:30:42.617Z,12.80
2018-10-15T01:33:12.079Z,12.57
2018-10-15T01:35:41.697Z,17.77
2018-10-15T01:38:11.277Z,11.53
2018-10-15T01:40:41.177Z,11.07
2018-10-15T01:43:10.600Z,10.93
2018-10-15T01:45:40.296Z,13.80
2018-10-15T01:48:10.377Z,12.73
2018-10-15T01:50:40.039Z,11.83
2018-10-15T01:53:09.939Z,11.47
2018-10-15T01:55:39.660Z,11.27
2018-10-15T01:58:09.438Z,13.27
2018-10-15T02:00:39.117Z,10.43
2018-10-15T02:03:08.798Z,13.00
2018-10-15T02:05:38.378Z,10.13
2018-10-15T02:08:08.098Z,11.40
2018-10-15T02:10:37.981Z,12.60
2018-10-15T02:13:07.658Z,11.00
2018-10-15T02:15:37.377Z,9.73
2018-10-15T02:18:07.059Z,15.33
2018-10-15T02:20:36.840Z,11.17
2018-10-15T02:23:06.739Z,12.27
2018-10-15T02:25:36.460Z,12.73
2018-10-15T02:28:06.227Z,12.10
2018-10-15T02:30:35.938Z,11.43
2018-10-15T02:33:05.740Z,12.47
2018-10-15T02:35:35.798Z,15.73
2018-10-15T02:38:05.574Z,10.43
2018-10-15T02:40:35.979Z,9.97
2018-10-15T02:43:05.859Z,11.60
2018-10-15T02:45:35.419Z,13.43
2018-10-15T02:48:05.278Z,11.30
2018-10-15T02:50:34.983Z,14.23
2018-10-15T02:53:04.619Z,11.07
2018-10-15T02:55:34.658Z,16.83
2018-10-15T02:58:04.560Z,12.37
2018-10-15T03:00:34.377Z,10.87
2018-10-15T03:03:04.457Z,11.33
2018-10-15T03:05:34.339Z,12.33
2018-10-15T03:08:03.979Z,11.70
2018-10-15T03:10:33.608Z,11.47
2018-10-15T03:13:03.238Z,12.20
2018-10-15T03:15:32.887Z,11.30
2018-10-15T03:18:02.638Z,10.90
2018-10-15T03:20:32.459Z,10.97
2018-10-15T03:23:02.199Z,11.63
2018-10-15T03:25:32.297Z,15.70
2018-10-15T03:28:03.597Z,12.70
2018-10-15T03:30:33.417Z,13.50
2018-10-15T03:33:03.160Z,13.63
2018-10-15T03:35:32.816Z,11.63
2018-10-15T03:38:02.700Z,11.13
2018-10-15T03:40:32.456Z,14.60
2018-10-15T03:43:02.077Z,15.80
2018-10-15T03:45:31.656Z,21.77
2018-10-15T03:48:01.376Z,13.57
2018-10-15T03:50:31.098Z,11.53
2018-10-15T03:53:00.776Z,12.43
2018-10-15T03:55:30.317Z,13.50
2018-10-15T03:58:00.097Z,14.43
2018-10-15T04:00:29.577Z,14.20
2018-10-15T04:02:59.017Z,13.47
2018-10-15T04:05:28.786Z,15.60
2018-10-15T04:08:00.083Z,12.93
2018-10-15T04:10:29.816Z,14.67
2018-10-15T04:12:59.636Z,12.20
2018-10-15T04:15:29.336Z,13.07
2018-10-15T04:17:59.176Z,11.53
2018-10-15T04:20:28.957Z,13.27
2018-10-15T04:22:58.696Z,12.63
2018-10-15T04:25:28.456Z,13.17
2018-10-15T04:27:58.137Z,12.40
2018-10-15T04:30:27.835Z,16.50
2018-10-15T04:32:57.695Z,14.07
2018-10-15T04:35:27.736Z,12.33
2018-10-15T04:37:57.646Z,15.43
2018-10-15T04:40:28.036Z,15.33
2018-10-15T04:42:57.796Z,15.63
2018-10-15T04:45:27.815Z,12.80
2018-10-15T04:47:57.918Z,14.00
2018-10-15T04:50:27.998Z,11.47
2018-10-15T04:52:57.795Z,13.83
2018-10-15T04:55:27.526Z,11.73
2018-10-15T04:57:57.097Z,12.47
2018-10-15T05:00:27.784Z,15.03
2018-10-15T05:02:57.679Z,13.73
2018-10-15T05:05:27.436Z,11.53
2018-10-15T05:07:57.236Z,13.90
2018-10-15T05:10:27.288Z,16.10
2018-10-15T05:12:56.997Z,13.90
2018-10-15T05:15:26.576Z,15.90
2018-10-15T05:17:56.176Z,15.80
2018-10-15T05:20:25.935Z,12.73
2018-10-15T05:22:55.636Z,13.57
2018-10-15T05:25:25.336Z,14.07
2018-10-15T05:27:55.036Z,14.03
2018-10-15T05:30:25.202Z,15.47
2018-10-15T05:32:54.735Z,12.03
2018-10-15T05:35:24.595Z,13.87
2018-10-15T05:37:54.695Z,14.37
2018-10-15T05:40:24.696Z,15.90
2018-10-15T05:42:54.476Z,16.57
2018-10-15T05:45:24.096Z,14.33
2018-10-15T05:47:53.492Z,12.63
2018-10-15T05:50:22.990Z,18.50
2018-10-15T05:52:52.561Z,15.33
2018-10-15T05:55:22.067Z,19.77
2018-10-15T05:57:51.497Z,12.83
2018-10-15T06:00:25.783Z,14.57
2018-10-15T06:02:55.113Z,15.77
2018-10-15T06:05:25.058Z,16.87
2018-10-15T06:07:54.894Z,12.27
2018-10-15T06:10:25.534Z,16.97
2018-10-15T06:12:55.201Z,18.57
2018-10-15T06:15:24.895Z,15.60
2018-10-15T06:17:54.654Z,16.70
2018-10-15T06:20:24.374Z,18.73
2018-10-15T06:22:54.593Z,13.83
2018-10-15T06:25:24.295Z,15.33
2018-10-15T06:27:54.039Z,13.80
2018-10-15T06:30:23.856Z,14.93
2018-10-15T06:32:53.754Z,16.10
2018-10-15T06:35:23.356Z,20.53
2018-10-15T06:37:52.954Z,18.07
2018-10-15T06:40:22.634Z,17.03
2018-10-15T06:42:52.194Z,14.23
2018-10-15T06:45:21.923Z,14.53
2018-10-15T06:47:51.493Z,16.13
2018-10-15T06:50:21.134Z,15.13
2018-10-15T06:52:50.994Z,12.70
2018-10-15T06:55:20.737Z,16.37
2018-10-15T06:57:50.489Z,16.43
2018-10-15T07:00:21.463Z,15.87
2018-10-15T07:02:50.926Z,16.03
2018-10-15T07:05:20.502Z,16.03
2018-10-15T07:07:50.091Z,15.17
2018-10-15T07:10:19.711Z,15.87
2018-10-15T07:12:49.356Z,14.70
2018-10-15T07:15:18.960Z,16.03
2018-10-15T07:17:48.636Z,17.87
2018-10-15T07:20:18.332Z,20.27
2018-10-15T07:22:47.898Z,19.63
2018-10-15T07:25:27.116Z,15.03
2018-10-15T07:27:57.061Z,14.93
2018-10-15T07:30:28.539Z,15.37
2018-10-15T07:32:58.156Z,13.73
2018-10-15T07:35:27.735Z,18.67
2018-10-15T07:37:58.262Z,18.03
2018-10-15T07:40:27.797Z,15.77
2018-10-15T07:42:58.455Z,15.63
2018-10-15T07:45:27.936Z,14.17
2018-10-15T07:47:58.764Z,17.50
2018-10-15T07:50:28.336Z,18.33
2018-10-15T07:52:57.957Z,17.63
2018-10-15T07:55:28.316Z,16.73
2018-10-15T07:57:57.816Z,16.47
2018-10-15T08:00:28.031Z,17.70
2018-10-15T08:02:58.057Z,22.23
2018-10-15T08:05:28.691Z,17.43
2018-10-15T08:07:59.037Z,20.70
2018-10-15T08:10:29.468Z,20.70
2018-10-15T08:13:00.476Z,16.53
2018-10-15T08:18:15.439Z,14.40
2018-10-15T08:20:56.522Z,17.73
2018-10-15T08:23:32.767Z,18.70
2018-10-15T08:31:33.537Z,16.60
2018-10-15T08:34:02.957Z,16.57
2018-10-15T08:36:33.097Z,15.83
2018-10-15T08:39:06.816Z,15.37
2018-10-15T08:41:36.238Z,16.00
2018-10-15T08:44:06.136Z,16.20
2018-10-15T08:46:35.796Z,22.97
2018-10-15T08:49:06.697Z,16.93
2018-10-15T08:51:36.263Z,21.20
2018-10-15T08:54:05.896Z,19.73
2018-10-15T08:56:35.456Z,19.70
2018-10-15T08:59:05.402Z,17.83
2018-10-15T09:01:36.654Z,19.07
2018-10-15T09:04:06.376Z,17.23
2018-10-15T09:06:35.908Z,19.60
2018-10-15T09:11:38.196Z,17.00
2018-10-15T09:14:08.156Z,19.97
2018-10-15T09:16:37.757Z,22.70
2018-10-15T09:21:38.262Z,20.63
2018-10-15T09:24:08.737Z,18.30
2018-10-15T09:26:40.334Z,18.20
2018-10-15T09:32:02.316Z,17.73
2018-10-15T09:34:32.988Z,19.27
2018-10-15T09:37:04.706Z,19.70
2018-10-15T09:39:34.490Z,19.53
2018-10-15T09:42:04.280Z,15.93
2018-10-15T09:44:33.841Z,17.43
2018-10-15T09:47:03.492Z,17.67
2018-10-15T09:49:34.865Z,20.00
2018-10-15T09:52:04.965Z,18.13
2018-10-15T09:54:34.697Z,17.03
2018-10-15T09:57:04.445Z,18.40
2018-10-15T09:59:34.057Z,20.93
2018-10-15T10:02:08.777Z,20.33
2018-10-15T10:04:39.024Z,16.17
2018-10-15T10:07:08.757Z,16.73
2018-10-15T10:09:39.376Z,18.33
2018-10-15T10:12:09.285Z,16.43
2018-10-15T10:14:38.811Z,16.37
2018-10-15T10:17:08.567Z,15.13
2018-10-15T10:19:39.097Z,24.23
2018-10-15T10:22:13.701Z,15.60
2018-10-15T10:24:43.693Z,16.83
2018-10-15T10:27:13.424Z,15.50
2018-10-15T10:29:44.885Z,14.80
2018-10-15T10:32:16.155Z,15.63
2018-10-15T10:36:07.584Z,22.13
2018-10-15T10:38:48.509Z,18.90
2018-10-15T10:41:20.060Z,14.80
2018-10-15T10:43:49.903Z,16.37
2018-10-15T10:46:19.634Z,17.47
2018-10-15T10:48:49.215Z,17.20
2018-10-15T10:51:18.955Z,16.73
2018-10-15T10:53:51.361Z,15.27
2018-10-15T10:56:21.116Z,17.20
2018-10-15T10:58:51.036Z,17.30
2018-10-15T11:01:20.698Z,16.57
2018-10-15T11:03:50.757Z,15.70
2018-10-15T11:06:20.198Z,17.77
2018-10-15T11:08:51.379Z,15.77
2018-10-15T11:11:21.138Z,16.90
2018-10-15T11:13:51.227Z,14.90
2018-10-15T11:16:21.317Z,17.17
2018-10-15T11:18:51.881Z,17.90
2018-10-15T11:21:22.017Z,17.00
2018-10-15T11:23:53.820Z,16.70
2018-10-15T11:26:24.197Z,18.33
2018-10-15T11:28:58.857Z,20.40
2018-10-15T11:31:28.436Z,20.43
2018-10-15T11:33:58.096Z,19.23
2018-10-15T11:36:27.997Z,18.00
2018-10-15T11:38:58.057Z,22.00
2018-10-15T11:41:28.317Z,17.07
2018-10-15T11:43:58.479Z,17.07
2018-10-15T11:46:28.257Z,22.17
2018-10-15T11:48:58.157Z,21.40
2018-10-15T11:51:28.185Z,19.30
2018-10-15T11:53:57.695Z,17.40
2018-10-15T11:56:27.357Z,18.80
2018-10-15T11:58:57.538Z,22.00
2018-10-15T12:01:27.638Z,18.43
2018-10-15T12:03:57.268Z,18.37
2018-10-15T12:06:26.861Z,19.70
2018-10-15T12:08:56.782Z,20.07
2018-10-15T12:11:26.461Z,19.03
2018-10-15T12:13:56.222Z,17.90
2018-10-15T12:16:26.102Z,20.53
2018-10-15T12:18:55.881Z,20.10
2018-10-15T12:21:25.543Z,21.57
2018-10-15T12:23:55.262Z,18.00
2018-10-15T12:26:25.141Z,18.67
2018-10-15T12:28:54.801Z,19.30
2018-10-15T12:31:24.637Z,19.87
2018-10-15T12:33:54.362Z,19.10
2018-10-15T12:36:24.102Z,18.13
2018-10-15T12:38:54.161Z,21.80
2018-10-15T12:41:23.979Z,19.00
2018-10-15T12:43:54.041Z,17.23
2018-10-15T12:48:57.741Z,18.10
2018-10-15T12:51:28.100Z,20.57
2018-10-15T12:53:58.060Z,21.10
2018-10-15T12:56:27.960Z,20.53
2018-10-15T12:58:59.978Z,20.90
2018-10-15T13:01:29.737Z,19.23
2018-10-15T13:03:59.628Z,19.17
2018-10-15T13:06:29.138Z,19.40
2018-10-15T13:08:58.804Z,22.17
2018-10-15T13:11:30.637Z,20.97
2018-10-15T13:14:01.057Z,18.67
2018-10-15T13:16:30.857Z,17.90
2018-10-15T13:19:00.637Z,16.90
2018-10-15T13:21:30.338Z,21.57
2018-10-15T13:23:59.836Z,24.67
2018-10-15T13:26:29.586Z,18.20
2018-10-15T13:28:59.318Z,21.83
2018-10-15T13:31:29.058Z,18.27
2018-10-15T13:33:58.697Z,17.13
2018-10-15T13:36:28.238Z,18.77
2018-10-15T13:38:58.039Z,20.63
2018-10-15T13:41:28.098Z,21.10
2018-10-15T13:43:57.739Z,19.20
2018-10-15T13:46:27.898Z,21.60
2018-10-15T13:48:57.737Z,20.40
2018-10-15T13:51:27.558Z,21.83
2018-10-15T13:53:57.278Z,28.43
2018-10-15T13:56:27.777Z,23.37
2018-10-15T13:58:57.698Z,18.83
2018-10-15T14:04:01.355Z,22.77
2018-10-15T14:06:31.094Z,20.93
2018-10-15T14:09:00.936Z,20.90
2018-10-15T14:11:30.696Z,22.63
2018-10-15T14:14:00.316Z,20.30
2018-10-15T14:16:34.237Z,19.00
2018-10-15T14:19:04.355Z,21.10
2018-10-15T14:21:33.962Z,18.73
2018-10-15T14:24:03.683Z,21.20
2018-10-15T14:26:33.723Z,18.93
2018-10-15T14:29:03.926Z,18.67
2018-10-15T14:31:34.140Z,19.77
2018-10-15T14:34:08.500Z,20.83
2018-10-15T14:36:38.316Z,20.83
2018-10-15T14:39:11.020Z,18.23
2018-10-15T14:41:41.139Z,22.13
2018-10-15T14:44:10.921Z,20.50
2018-10-15T14:46:40.854Z,22.50
2018-10-15T14:49:10.854Z,21.60
2018-10-15T14:51:40.534Z,27.03
2018-10-15T14:54:10.458Z,22.47
2018-10-15T14:56:40.330Z,21.07
2018-10-15T14:59:10.013Z,21.40
2018-10-15T15:01:39.697Z,20.77
2018-10-15T15:04:09.486Z,19.40
2018-10-15T15:06:39.260Z,19.57
2018-10-15T15:12:10.744Z,22.50
2018-10-15T15:14:40.527Z,23.80
2018-10-15T15:17:10.578Z,26.93
2018-10-15T15:19:43.204Z,26.30
2018-10-15T15:22:13.242Z,26.80
2018-10-15T15:24:50.487Z,21.70
2018-10-15T15:27:21.095Z,21.77
2018-10-15T15:29:52.542Z,25.23
2018-10-15T15:32:23.636Z,22.73
2018-10-15T15:34:53.603Z,23.70
2018-10-15T15:37:24.296Z,22.53
2018-10-15T15:39:56.000Z,30.17
2018-10-15T15:42:26.756Z,28.23
2018-10-15T15:44:57.397Z,25.87
2018-10-15T15:47:27.818Z,27.70
2018-10-15T15:49:58.940Z,24.43
2018-10-15T15:52:28.720Z,28.30
2018-10-15T15:54:59.076Z,23.63
2018-10-15T15:57:28.796Z,30.57
2018-10-15T15:59:59.197Z,24.33
2018-10-15T16:02:28.813Z,20.53
2018-10-15T16:04:58.687Z,36.60
2018-10-15T16:07:28.356Z,77.17
2018-10-15T16:10:00.322Z,57.87
2018-10-15T16:12:30.820Z,57.37
2018-10-15T16:15:00.621Z,51.70
2018-10-15T16:17:30.602Z,34.87
2018-10-15T16:20:00.481Z,31.57
2018-10-15T16:22:31.404Z,50.03
2018-10-15T16:25:03.107Z,63.30
2018-10-15T16:27:32.940Z,32.83
2018-10-15T16:32:36.482Z,25.87
2018-10-15T16:35:12.040Z,23.03
2018-10-15T16:37:43.562Z,26.43
2018-10-15T16:40:13.919Z,27.33
2018-10-15T16:42:43.999Z,27.10
2018-10-15T16:45:14.716Z,28.43
2018-10-15T16:47:44.400Z,28.60
2018-10-15T16:50:18.021Z,32.73
2018-10-15T16:52:47.740Z,26.30
2018-10-15T16:55:17.780Z,24.30
2018-10-15T16:57:51.500Z,24.17
2018-10-15T17:00:22.878Z,23.33
2018-10-15T17:02:52.616Z,24.50
2018-10-15T17:05:22.635Z,25.17
2018-10-15T17:07:52.377Z,22.37
2018-10-15T17:10:22.377Z,23.57
2018-10-15T17:12:51.975Z,25.63
2018-10-15T17:15:26.056Z,27.03
2018-10-15T17:17:55.976Z,22.97
2018-10-15T17:20:25.897Z,25.90
2018-10-15T17:22:59.655Z,26.10
2018-10-15T17:25:29.775Z,25.23
2018-10-15T17:27:59.535Z,27.47
2018-10-15T17:30:29.256Z,24.43
2018-10-15T17:32:58.895Z,29.93
2018-10-15T17:35:32.956Z,24.70
2018-10-15T17:38:02.827Z,25.83
2018-10-15T17:40:36.584Z,29.03
2018-10-15T17:43:06.197Z,26.80
2018-10-15T17:45:40.052Z,25.17
2018-10-15T17:48:14.548Z,23.73
2018-10-15T17:50:44.967Z,27.57
2018-10-15T17:53:14.924Z,25.00
2018-10-15T17:55:49.258Z,22.87
2018-10-15T17:58:19.297Z,24.50
2018-10-15T18:00:49.778Z,25.03
2018-10-15T18:03:19.461Z,23.47
2018-10-15T18:05:49.539Z,24.77
2018-10-15T18:08:19.426Z,30.73
2018-10-15T18:10:49.759Z,23.73
2018-10-15T18:13:19.399Z,28.00
2018-10-15T18:15:50.960Z,31.30
2018-10-15T18:18:25.238Z,28.20
2018-10-15T18:20:55.478Z,28.10
2018-10-15T18:23:25.258Z,23.03
2018-10-15T18:25:55.408Z,24.77
2018-10-15T18:28:25.418Z,23.97
2018-10-15T18:30:55.778Z,24.03
2018-10-15T18:33:25.558Z,27.43
2018-10-15T18:35:57.278Z,26.40
2018-10-15T18:38:27.318Z,25.10
2018-10-15T18:40:57.415Z,26.53
2018-10-15T18:43:27.437Z,32.73
2018-10-15T18:46:01.678Z,31.37
2018-10-15T18:51:05.760Z,26.37
2018-10-15T18:53:35.855Z,30.37
2018-10-15T18:56:06.155Z,30.17
2018-10-15T18:58:36.096Z,26.87
2018-10-15T19:01:06.379Z,29.63
2018-10-15T19:03:36.035Z,27.10
2018-10-15T19:06:06.194Z,29.53
2018-10-15T19:08:36.294Z,27.80
2018-10-15T19:11:07.356Z,25.33
2018-10-15T19:13:37.140Z,24.57
2018-10-15T19:16:08.136Z,25.87
2018-10-15T19:18:38.155Z,25.90
2018-10-15T19:21:08.316Z,26.30
2018-10-15T19:23:38.695Z,26.93
2018-10-15T19:26:09.121Z,24.57
2018-10-15T19:28:39.196Z,34.90
2018-10-15T19:31:09.615Z,25.27
2018-10-15T19:33:39.977Z,26.00
2018-10-15T19:36:10.375Z,25.77
2018-10-15T19:38:40.455Z,25.17
2018-10-15T19:41:10.655Z,26.20
2018-10-15T19:43:40.655Z,26.87
2018-10-15T19:46:10.536Z,26.70
2018-10-15T19:48:40.756Z,25.20
2018-10-15T19:51:10.675Z,23.90
2018-10-15T19:53:40.895Z,29.07
2018-10-15T19:58:45.576Z,23.57
2018-10-15T20:01:15.684Z,26.33
2018-10-15T20:03:45.692Z,28.70
2018-10-15T20:06:15.842Z,25.37
2018-10-15T20:08:45.902Z,25.10
2018-10-15T20:11:15.968Z,25.80
2018-10-15T20:13:46.705Z,26.27
2018-10-15T20:16:16.801Z,25.20
2018-10-15T20:18:46.856Z,30.27
2018-10-15T20:21:17.297Z,29.17
2018-10-15T20:23:47.297Z,24.40
2018-10-15T20:26:17.417Z,27.33
2018-10-15T20:28:47.225Z,26.60
2018-10-15T20:31:16.957Z,28.37
2018-10-15T20:33:46.437Z,24.57
2018-10-15T20:36:24.627Z,24.87
2018-10-15T20:38:54.892Z,26.27
2018-10-15T20:41:24.647Z,24.80
2018-10-15T20:43:54.487Z,24.23
2018-10-15T20:46:24.501Z,25.73
2018-10-15T20:51:32.684Z,25.87
2018-10-15T20:54:02.304Z,25.07
2018-10-15T20:56:33.188Z,24.77
2018-10-15T20:59:02.498Z,26.73
2018-10-15T21:01:31.859Z,25.83
2018-10-15T21:04:01.333Z,27.10
2018-10-15T21:06:30.599Z,24.00
2018-10-15T21:09:00.136Z,23.73
2018-10-15T21:14:03.273Z,25.87
2018-10-15T21:16:32.474Z,27.40
2018-10-15T21:19:01.837Z,30.90
2018-10-15T21:21:35.602Z,27.57
2018-10-15T21:24:05.550Z,28.13
2018-10-15T21:26:34.857Z,23.60
2018-10-15T21:29:04.922Z,24.10
2018-10-15T21:31:34.732Z,25.10
2018-10-15T21:34:04.656Z,23.47
2018-10-15T21:36:34.524Z,26.63
2018-10-15T21:39:05.010Z,25.23
2018-10-15T21:41:34.790Z,25.90
2018-10-15T21:44:05.150Z,26.47
2018-10-15T21:46:37.552Z,24.73
2018-10-15T21:51:39.805Z,24.63
2018-10-15T21:54:09.762Z,25.40
2018-10-15T21:56:40.017Z,27.87
2018-10-15T21:59:10.316Z,26.97
2018-10-15T22:01:41.683Z,24.57
2018-10-15T22:04:12.023Z,28.03
2018-10-15T22:06:42.697Z,29.20
2018-10-15T22:09:13.782Z,31.30
2018-10-15T22:11:44.042Z,26.17
2018-10-15T22:14:14.240Z,27.53
2018-10-15T22:16:48.621Z,27.70
2018-10-15T22:19:18.860Z,24.90
2018-10-15T22:21:48.880Z,27.90
2018-10-15T22:24:18.600Z,23.90
2018-10-15T22:26:48.320Z,25.83
2018-10-15T22:29:18.176Z,26.90
2018-10-15T22:31:47.956Z,24.97
2018-10-15T22:34:17.658Z,23.63
2018-10-15T22:36:47.737Z,23.73
2018-10-15T22:39:17.536Z,24.00
2018-10-15T22:41:47.116Z,23.60
2018-10-15T22:44:16.842Z,24.63
2018-10-15T22:46:46.277Z,25.33
2018-10-15T22:49:16.197Z,23.27
2018-10-15T22:51:45.756Z,24.57
2018-10-15T22:54:15.416Z,24.67
2018-10-15T22:56:45.198Z,23.50
2018-10-15T22:59:14.876Z,22.90
2018-10-15T23:01:48.659Z,24.17
2018-10-15T23:04:18.056Z,26.33
2018-10-15T23:06:47.836Z,30.27
2018-10-15T23:09:17.876Z,23.90
2018-10-15T23:11:47.659Z,23.40
2018-10-15T23:14:17.504Z,25.13
2018-10-15T23:16:47.118Z,25.20
2018-10-15T23:19:16.800Z,25.50
2018-10-15T23:21:46.377Z,23.87
2018-10-15T23:24:15.877Z,25.47
2018-10-15T23:26:45.537Z,25.33
2018-10-15T23:29:26.837Z,25.33
2018-10-15T23:31:56.636Z,26.03
2018-10-15T23:34:26.396Z,25.03
2018-10-15T23:36:56.296Z,24.37
2018-10-15T23:39:26.197Z,23.47
2018-10-15T23:41:56.137Z,26.33
2018-10-15T23:44:26.017Z,27.97
2018-10-15T23:46:55.778Z,25.07
2018-10-15T23:49:25.596Z,25.87
2018-10-15T23:51:55.857Z,28.03
2018-10-15T23:54:25.498Z,28.03
2018-10-15T23:56:55.577Z,25.20
2018-10-15T23:59:29.036Z,24.20
